sensor_id;sensor_type;location;lat;lon;timestamp;pressure;altitude;pressure_sealevel;temperature;humidity
47815;BME280;33579;50.058;18.130;2023-08-12T00:00:19;99845.47;;;16.40;100.00
47815;BME280;33579;50.058;18.130;2023-08-12T00:01:21;99851.50;;;16.42;100.00
47815;BME280;33579;50.058;18.130;2023-08-12T00:02:23;99851.50;;;16.42;100.00
47815;BME280;33579;50.058;18.130;2023-08-12T00:03:25;99848.84;;;16.42;100.00
47815;BME280;33579;50.058;18.130;2023-08-12T00:04:26;99850.78;;;16.40;100.00
47815;BME280;33579;50.058;18.130;2023-08-12T00:05:28;99854.59;;;16.38;100.00
47815;BME280;33579;50.058;18.130;2023-08-12T00:06:30;99849.75;;;16.33;100.00
47815;BME280;33579;50.058;18.130;2023-08-12T00:07:32;99856.88;;;16.33;100.00
47815;BME280;33579;50.058;18.130;2023-08-12T00:08:34;99854.22;;;16.33;100.00
47815;BME280;33579;50.058;18.130;2023-08-12T00:09:36;99856.72;;;16.34;100.00
47815;BME280;33579;50.058;18.130;2023-08-12T00:10:37;99855.38;;;16.30;100.00
47815;BME280;33579;50.058;18.130;2023-08-12T00:11:39;99853.03;;;16.27;100.00
47815;BME280;33579;50.058;18.130;2023-08-12T00:12:41;99860.84;;;16.28;100.00
47815;BME280;33579;50.058;18.130;2023-08-12T00:13:42;99859.84;;;16.29;100.00
47815;BME280;33579;50.058;18.130;2023-08-12T00:14:44;99859.53;;;16.33;100.00
47815;BME280;33579;50.058;18.130;2023-08-12T00:15:46;99858.53;;;16.34;100.00
47815;BME280;33579;50.058;18.130;2023-08-12T00:16:47;99858.72;;;16.32;100.00
47815;BME280;33579;50.058;18.130;2023-08-12T00:17:49;99860.00;;;16.28;100.00
47815;BME280;33579;50.058;18.130;2023-08-12T00:18:51;99854.84;;;16.26;100.00
47815;BME280;33579;50.058;18.130;2023-08-12T00:19:52;99860.38;;;16.33;100.00
47815;BME280;33579;50.058;18.130;2023-08-12T00:20:54;99855.75;;;16.35;100.00
47815;BME280;33579;50.058;18.130;2023-08-12T00:21:55;99853.22;;;16.34;100.00
47815;BME280;33579;50.058;18.130;2023-08-12T00:22:57;99856.88;;;16.33;100.00
47815;BME280;33579;50.058;18.130;2023-08-12T00:23:59;99856.34;;;16.29;100.00
47815;BME280;33579;50.058;18.130;2023-08-12T00:25:00;99855.31;;;16.22;100.00
47815;BME280;33579;50.058;18.130;2023-08-12T00:26:02;99853.25;;;16.15;100.00
47815;BME280;33579;50.058;18.130;2023-08-12T00:27:04;99850.59;;;16.15;100.00
47815;BME280;33579;50.058;18.130;2023-08-12T00:28:06;99852.28;;;16.16;100.00
47815;BME280;33579;50.058;18.130;2023-08-12T00:29:07;99851.31;;;16.18;100.00
47815;BME280;33579;50.058;18.130;2023-08-12T00:30:09;99851.91;;;16.11;100.00
47815;BME280;33579;50.058;18.130;2023-08-12T00:31:11;99853.34;;;16.06;100.00
47815;BME280;33579;50.058;18.130;2023-08-12T00:32:13;99853.34;;;16.06;100.00
47815;BME280;33579;50.058;18.130;2023-08-12T00:33:14;99850.16;;;16.02;100.00
47815;BME280;33579;50.058;18.130;2023-08-12T00:34:17;99850.47;;;15.99;100.00
47815;BME280;33579;50.058;18.130;2023-08-12T00:35:19;99846.31;;;15.96;100.00
47815;BME280;33579;50.058;18.130;2023-08-12T00:36:20;99847.16;;;15.97;100.00
47815;BME280;33579;50.058;18.130;2023-08-12T00:37:22;99846.31;;;15.96;100.00
47815;BME280;33579;50.058;18.130;2023-08-12T00:38:24;99842.97;;;15.94;100.00
47815;BME280;33579;50.058;18.130;2023-08-12T00:39:26;99846.03;;;15.99;100.00
47815;BME280;33579;50.058;18.130;2023-08-12T00:40:28;99851.03;;;16.02;100.00
47815;BME280;33579;50.058;18.130;2023-08-12T00:41:29;99844.03;;;16.01;100.00
47815;BME280;33579;50.058;18.130;2023-08-12T00:42:31;99841.06;;;16.05;100.00
47815;BME280;33579;50.058;18.130;2023-08-12T00:43:33;99838.44;;;16.05;100.00
47815;BME280;33579;50.058;18.130;2023-08-12T00:44:34;99837.56;;;16.04;100.00
47815;BME280;33579;50.058;18.130;2023-08-12T00:45:36;99840.41;;;16.02;100.00
47815;BME280;33579;50.058;18.130;2023-08-12T00:46:40;99845.84;;;16.01;100.00
47815;BME280;33579;50.058;18.130;2023-08-12T00:47:43;99846.69;;;16.01;100.00
47815;BME280;33579;50.058;18.130;2023-08-12T00:48:44;99848.50;;;16.01;100.00
47815;BME280;33579;50.058;18.130;2023-08-12T00:49:46;99850.84;;;16.04;100.00
47815;BME280;33579;50.058;18.130;2023-08-12T00:50:48;99844.72;;;16.04;100.00
47815;BME280;33579;50.058;18.130;2023-08-12T00:51:51;99846.97;;;15.98;100.00
47815;BME280;33579;50.058;18.130;2023-08-12T00:52:53;99847.69;;;16.00;100.00
47815;BME280;33579;50.058;18.130;2023-08-12T00:53:57;99844.03;;;16.01;100.00
47815;BME280;33579;50.058;18.130;2023-08-12T00:54:59;99852.81;;;16.02;100.00
47815;BME280;33579;50.058;18.130;2023-08-12T00:56:02;99851.69;;;16.05;100.00
47815;BME280;33579;50.058;18.130;2023-08-12T00:57:03;99852.81;;;16.02;100.00
47815;BME280;33579;50.058;18.130;2023-08-12T00:58:09;99849.50;;;16.00;100.00
47815;BME280;33579;50.058;18.130;2023-08-12T00:59:11;99852.47;;;15.97;100.00
47815;BME280;33579;50.058;18.130;2023-08-12T01:00:14;99853.13;;;15.99;100.00
47815;BME280;33579;50.058;18.130;2023-08-12T01:01:18;99851.78;;;15.95;100.00
47815;BME280;33579;50.058;18.130;2023-08-12T01:02:21;99853.44;;;15.96;100.00
47815;BME280;33579;50.058;18.130;2023-08-12T01:03:23;99851.13;;;15.93;100.00
47815;BME280;33579;50.058;18.130;2023-08-12T01:04:25;99856.56;;;15.91;100.00
47815;BME280;33579;50.058;18.130;2023-08-12T01:05:27;99854.72;;;15.92;100.00
47815;BME280;33579;50.058;18.130;2023-08-12T01:06:29;99844.28;;;15.90;100.00
47815;BME280;33579;50.058;18.130;2023-08-12T01:07:30;99849.59;;;15.90;100.00
47815;BME280;33579;50.058;18.130;2023-08-12T01:08:33;99855.72;;;15.91;100.00
47815;BME280;33579;50.058;18.130;2023-08-12T01:09:36;99847.47;;;15.94;100.00
47815;BME280;33579;50.058;18.130;2023-08-12T01:10:42;99842.16;;;15.94;100.00
47815;BME280;33579;50.058;18.130;2023-08-12T01:13:02;99842.84;;;15.96;100.00
47815;BME280;33579;50.058;18.130;2023-08-12T01:15:21;99843.81;;;15.95;100.00
47815;BME280;33579;50.058;18.130;2023-08-12T01:16:25;99848.47;;;15.93;100.00
47815;BME280;33579;50.058;18.130;2023-08-12T01:17:29;99846.47;;;15.95;100.00
47815;BME280;33579;50.058;18.130;2023-08-12T01:18:31;99849.63;;;15.98;100.00
47815;BME280;33579;50.058;18.130;2023-08-12T01:19:36;99842.53;;;15.99;100.00
47815;BME280;33579;50.058;18.130;2023-08-12T01:20:38;99852.47;;;15.97;100.00
47815;BME280;33579;50.058;18.130;2023-08-12T01:21:43;99842.16;;;15.94;100.00
47815;BME280;33579;50.058;18.130;2023-08-12T01:22:45;99848.97;;;15.96;100.00
47815;BME280;33579;50.058;18.130;2023-08-12T01:23:47;99846.84;;;16.00;100.00
47815;BME280;33579;50.058;18.130;2023-08-12T01:24:51;99847.69;;;16.00;100.00
47815;BME280;33579;50.058;18.130;2023-08-12T01:25:52;99855.66;;;16.00;100.00
47815;BME280;33579;50.058;18.130;2023-08-12T01:26:54;99851.84;;;16.03;100.00
47815;BME280;33579;50.058;18.130;2023-08-12T01:27:56;99849.72;;;16.07;100.00
47815;BME280;33579;50.058;18.130;2023-08-12T01:28:58;99850.56;;;16.07;100.00
47815;BME280;33579;50.058;18.130;2023-08-12T01:30:00;99853.88;;;16.09;100.00
47815;BME280;33579;50.058;18.130;2023-08-12T01:31:40;99851.91;;;16.11;100.00
47815;BME280;33579;50.058;18.130;2023-08-12T01:33:09;99854.22;;;16.06;100.00
47815;BME280;33579;50.058;18.130;2023-08-12T01:35:55;99855.72;;;15.91;100.00
47815;BME280;33579;50.058;18.130;2023-08-12T01:37:02;99859.09;;;15.83;100.00
47815;BME280;33579;50.058;18.130;2023-08-12T01:38:08;99861.59;;;15.66;100.00
47815;BME280;33579;50.058;18.130;2023-08-12T01:39:10;99858.84;;;15.58;100.00
47815;BME280;33579;50.058;18.130;2023-08-12T01:40:15;99861.94;;;15.53;100.00
47815;BME280;33579;50.058;18.130;2023-08-12T01:41:19;99863.25;;;15.49;100.00
47815;BME280;33579;50.058;18.130;2023-08-12T01:42:24;99860.91;;;15.46;100.00
47815;BME280;33579;50.058;18.130;2023-08-12T01:43:28;99857.41;;;15.45;100.00
47815;BME280;33579;50.058;18.130;2023-08-12T01:44:31;99860.06;;;15.45;100.00
47815;BME280;33579;50.058;18.130;2023-08-12T01:45:33;99865.22;;;15.47;100.00
47815;BME280;33579;50.058;18.130;2023-08-12T01:46:36;99847.69;;;15.36;100.00
47815;BME280;33579;50.058;18.130;2023-08-12T01:47:38;99857.59;;;15.34;100.00
47815;BME280;33579;50.058;18.130;2023-08-12T01:48:40;99852.03;;;15.37;100.00
47815;BME280;33579;50.058;18.130;2023-08-12T01:49:42;99853.69;;;15.38;100.00
47815;BME280;33579;50.058;18.130;2023-08-12T01:50:43;99856.47;;;15.37;100.00
47815;BME280;33579;50.058;18.130;2023-08-12T01:51:45;99854.28;;;15.32;100.00
47815;BME280;33579;50.058;18.130;2023-08-12T01:52:47;99854.28;;;15.32;100.00
47815;BME280;33579;50.058;18.130;2023-08-12T01:53:48;99854.41;;;15.30;100.00
47815;BME280;33579;50.058;18.130;2023-08-12T01:54:50;99852.75;;;15.29;100.00
47815;BME280;33579;50.058;18.130;2023-08-12T01:55:52;99853.91;;;15.27;100.00
47815;BME280;33579;50.058;18.130;2023-08-12T01:56:54;99848.72;;;15.25;100.00
47815;BME280;33579;50.058;18.130;2023-08-12T01:57:57;99844.72;;;15.21;100.00
47815;BME280;33579;50.058;18.130;2023-08-12T01:58:58;99844.03;;;15.19;100.00
47815;BME280;33579;50.058;18.130;2023-08-12T02:00:01;99847.50;;;15.20;100.00
47815;BME280;33579;50.058;18.130;2023-08-12T02:01:17;99842.81;;;15.13;100.00
47815;BME280;33579;50.058;18.130;2023-08-12T02:02:18;99846.41;;;15.12;100.00
47815;BME280;33579;50.058;18.130;2023-08-12T02:03:20;99841.97;;;15.13;100.00
47815;BME280;33579;50.058;18.130;2023-08-12T02:04:22;99846.81;;;15.17;100.00
47815;BME280;33579;50.058;18.130;2023-08-12T02:05:24;99837.22;;;15.16;100.00
47815;BME280;33579;50.058;18.130;2023-08-12T02:06:25;99846.53;;;15.21;100.00
47815;BME280;33579;50.058;18.130;2023-08-12T02:07:27;99851.38;;;15.25;100.00
47815;BME280;33579;50.058;18.130;2023-08-12T02:08:28;99842.59;;;15.25;100.00
47815;BME280;33579;50.058;18.130;2023-08-12T02:09:30;99846.75;;;15.27;100.00
47815;BME280;33579;50.058;18.130;2023-08-12T02:10:32;99853.59;;;15.30;100.00
47815;BME280;33579;50.058;18.130;2023-08-12T02:11:34;99851.09;;;15.28;100.00
47815;BME280;33579;50.058;18.130;2023-08-12T02:12:35;99849.28;;;15.29;100.00
47815;BME280;33579;50.058;18.130;2023-08-12T02:13:37;99848.28;;;15.30;100.00
47815;BME280;33579;50.058;18.130;2023-08-12T02:14:38;99849.53;;;15.36;100.00
47815;BME280;33579;50.058;18.130;2023-08-12T02:15:40;99856.47;;;15.37;100.00
47815;BME280;33579;50.058;18.130;2023-08-12T02:16:46;99845.75;;;15.38;100.00
47815;BME280;33579;50.058;18.130;2023-08-12T02:17:48;99846.47;;;15.30;100.00
47815;BME280;33579;50.058;18.130;2023-08-12T02:18:49;99846.75;;;15.27;100.00
47815;BME280;33579;50.058;18.130;2023-08-12T02:19:51;99845.41;;;15.23;100.00
47815;BME280;33579;50.058;18.130;2023-08-12T02:20:53;99838.56;;;15.21;100.00
47815;BME280;33579;50.058;18.130;2023-08-12T02:21:54;99837.34;;;15.15;100.00
47815;BME280;33579;50.058;18.130;2023-08-12T02:22:56;99834.00;;;15.13;100.00
47815;BME280;33579;50.058;18.130;2023-08-12T02:23:57;99836.97;;;15.10;100.00
47815;BME280;33579;50.058;18.130;2023-08-12T02:24:59;99829.47;;;15.05;100.00
47815;BME280;33579;50.058;18.130;2023-08-12T02:26:02;99839.38;;;15.03;100.00
47815;BME280;33579;50.058;18.130;2023-08-12T02:27:03;99835.31;;;14.99;100.00
47815;BME280;33579;50.058;18.130;2023-08-12T02:28:05;99843.56;;;14.96;100.00
47815;BME280;33579;50.058;18.130;2023-08-12T02:29:07;99837.22;;;14.88;100.00
47815;BME280;33579;50.058;18.130;2023-08-12T02:30:09;99839.31;;;14.85;100.00
47815;BME280;33579;50.058;18.130;2023-08-12T02:31:11;99845.59;;;14.84;100.00
47815;BME280;33579;50.058;18.130;2023-08-12T02:32:13;99838.63;;;14.83;100.00
47815;BME280;33579;50.058;18.130;2023-08-12T02:33:15;99838.31;;;14.86;100.00
47815;BME280;33579;50.058;18.130;2023-08-12T02:34:16;99843.75;;;14.84;100.00
47815;BME280;33579;50.058;18.130;2023-08-12T02:35:18;99837.91;;;14.81;100.00
47815;BME280;33579;50.058;18.130;2023-08-12T02:36:20;99840.56;;;14.81;100.00
47815;BME280;33579;50.058;18.130;2023-08-12T02:37:21;99834.75;;;14.77;100.00
47815;BME280;33579;50.058;18.130;2023-08-12T02:38:23;99835.56;;;14.78;100.00
47815;BME280;33579;50.058;18.130;2023-08-12T02:39:25;99836.41;;;14.78;100.00
47815;BME280;33579;50.058;18.130;2023-08-12T02:40:26;99830.13;;;14.79;100.00
47815;BME280;33579;50.058;18.130;2023-08-12T02:41:28;99833.47;;;14.81;100.00
47815;BME280;33579;50.058;18.130;2023-08-12T02:42:30;99829.16;;;14.80;100.00
47815;BME280;33579;50.058;18.130;2023-08-12T02:43:31;99831.13;;;14.78;100.00
47815;BME280;33579;50.058;18.130;2023-08-12T02:44:36;99839.50;;;14.73;100.00
47815;BME280;33579;50.058;18.130;2023-08-12T02:45:38;99836.00;;;14.73;100.00
47815;BME280;33579;50.058;18.130;2023-08-12T02:46:39;99842.25;;;14.82;100.00
47815;BME280;33579;50.058;18.130;2023-08-12T02:47:41;99839.16;;;14.86;100.00
47815;BME280;33579;50.058;18.130;2023-08-12T02:48:43;99840.81;;;14.87;100.00
47815;BME280;33579;50.058;18.130;2023-08-12T02:49:44;99845.19;;;14.79;100.00
47815;BME280;33579;50.058;18.130;2023-08-12T02:50:46;99838.69;;;14.53;100.00
47815;BME280;33579;50.058;18.130;2023-08-12T02:51:48;99836.50;;;14.39;100.00
47815;BME280;33579;50.058;18.130;2023-08-12T02:52:49;99830.81;;;14.24;100.00
47815;BME280;33579;50.058;18.130;2023-08-12T02:53:51;99841.22;;;14.25;100.00
47815;BME280;33579;50.058;18.130;2023-08-12T02:54:53;99832.88;;;14.30;100.00
47815;BME280;33579;50.058;18.130;2023-08-12T02:55:54;99837.31;;;14.39;100.00
47815;BME280;33579;50.058;18.130;2023-08-12T02:56:56;99825.34;;;14.35;100.00
47815;BME280;33579;50.058;18.130;2023-08-12T02:57:58;99835.91;;;14.45;100.00
47815;BME280;33579;50.058;18.130;2023-08-12T02:59:00;99837.44;;;14.47;100.00
47815;BME280;33579;50.058;18.130;2023-08-12T03:00:02;99842.03;;;14.55;100.00
47815;BME280;33579;50.058;18.130;2023-08-12T03:01:04;99839.75;;;14.60;100.00
47815;BME280;33579;50.058;18.130;2023-08-12T03:02:06;99839.34;;;14.65;100.00
47815;BME280;33579;50.058;18.130;2023-08-12T03:03:07;99844.34;;;14.68;100.00
47815;BME280;33579;50.058;18.130;2023-08-12T03:04:10;99834.47;;;14.70;100.00
47815;BME280;33579;50.058;18.130;2023-08-12T03:05:11;99840.47;;;14.72;100.00
47815;BME280;33579;50.058;18.130;2023-08-12T03:06:13;99836.84;;;14.73;100.00
47815;BME280;33579;50.058;18.130;2023-08-12T03:07:14;99846.16;;;14.78;100.00
47815;BME280;33579;50.058;18.130;2023-08-12T03:08:16;99840.03;;;14.77;100.00
47815;BME280;33579;50.058;18.130;2023-08-12T03:09:19;99845.47;;;14.75;100.00
47815;BME280;33579;50.058;18.130;2023-08-12T03:10:20;99841.03;;;14.76;100.00
47815;BME280;33579;50.058;18.130;2023-08-12T03:11:22;99847.69;;;14.80;100.00
47815;BME280;33579;50.058;18.130;2023-08-12T03:12:24;99845.84;;;14.81;100.00
47815;BME280;33579;50.058;18.130;2023-08-12T03:13:26;99846.56;;;14.83;100.00
47815;BME280;33579;50.058;18.130;2023-08-12T03:14:29;99854.22;;;14.86;100.00
47815;BME280;33579;50.058;18.130;2023-08-12T03:15:33;99847.25;;;14.85;100.00
47815;BME280;33579;50.058;18.130;2023-08-12T03:16:34;99835.13;;;14.82;100.00
47815;BME280;33579;50.058;18.130;2023-08-12T03:17:36;99852.94;;;14.90;100.00
47815;BME280;33579;50.058;18.130;2023-08-12T03:18:38;99846.72;;;14.71;100.00
47815;BME280;33579;50.058;18.130;2023-08-12T03:19:40;99844.00;;;14.53;100.00
47815;BME280;33579;50.058;18.130;2023-08-12T03:20:41;99844.16;;;14.32;100.00
47815;BME280;33579;50.058;18.130;2023-08-12T03:21:43;99847.66;;;14.23;100.00
47815;BME280;33579;50.058;18.130;2023-08-12T03:22:45;99845.56;;;14.16;100.00
47815;BME280;33579;50.058;18.130;2023-08-12T03:23:46;99844.84;;;14.24;100.00
47815;BME280;33579;50.058;18.130;2023-08-12T03:24:48;99855.03;;;14.29;100.00
47815;BME280;33579;50.058;18.130;2023-08-12T03:25:51;99850.44;;;14.21;100.00
47815;BME280;33579;50.058;18.130;2023-08-12T03:26:53;99849.50;;;14.02;100.00
47815;BME280;33579;50.058;18.130;2023-08-12T03:27:55;99847.69;;;13.93;100.00
47815;BME280;33579;50.058;18.130;2023-08-12T03:28:56;99848.22;;;13.87;100.00
47815;BME280;33579;50.058;18.130;2023-08-12T03:29:58;99843.34;;;13.82;100.00
47815;BME280;33579;50.058;18.130;2023-08-12T03:31:00;99851.00;;;13.66;100.00
47815;BME280;33579;50.058;18.130;2023-08-12T03:32:01;99850.44;;;13.62;100.00
47815;BME280;33579;50.058;18.130;2023-08-12T03:33:04;99846.13;;;13.61;100.00
47815;BME280;33579;50.058;18.130;2023-08-12T03:34:07;99840.03;;;13.60;100.00
47815;BME280;33579;50.058;18.130;2023-08-12T03:35:09;99839.44;;;13.57;100.00
47815;BME280;33579;50.058;18.130;2023-08-12T03:36:11;99837.78;;;13.56;100.00
47815;BME280;33579;50.058;18.130;2023-08-12T03:37:13;99837.38;;;13.60;100.00
47815;BME280;33579;50.058;18.130;2023-08-12T03:38:15;99840.03;;;13.70;100.00
47815;BME280;33579;50.058;18.130;2023-08-12T03:39:18;99843.34;;;13.82;100.00
47815;BME280;33579;50.058;18.130;2023-08-12T03:40:21;99846.16;;;13.90;100.00
47815;BME280;33579;50.058;18.130;2023-08-12T03:41:24;99840.84;;;14.00;100.00
47815;BME280;33579;50.058;18.130;2023-08-12T03:42:27;99835.84;;;13.97;100.00
47815;BME280;33579;50.058;18.130;2023-08-12T03:43:28;99834.31;;;14.04;100.00
47815;BME280;33579;50.058;18.130;2023-08-12T03:44:30;99839.19;;;14.09;100.00
47815;BME280;33579;50.058;18.130;2023-08-12T03:45:33;99843.22;;;14.13;100.00
47815;BME280;33579;50.058;18.130;2023-08-12T03:46:34;99834.84;;;14.18;100.00
47815;BME280;33579;50.058;18.130;2023-08-12T03:47:36;99844.03;;;14.24;100.00
47815;BME280;33579;50.058;18.130;2023-08-12T03:48:38;99841.50;;;14.32;100.00
47815;BME280;33579;50.058;18.130;2023-08-12T03:49:40;99835.94;;;14.35;100.00
47815;BME280;33579;50.058;18.130;2023-08-12T03:50:42;99839.84;;;14.41;100.00
47815;BME280;33579;50.058;18.130;2023-08-12T03:51:44;99842.19;;;14.44;100.00
47815;BME280;33579;50.058;18.130;2023-08-12T03:52:45;99837.72;;;14.44;100.00
47815;BME280;33579;50.058;18.130;2023-08-12T03:53:47;99836.03;;;14.43;100.00
47815;BME280;33579;50.058;18.130;2023-08-12T03:54:50;99843.44;;;14.50;100.00
47815;BME280;33579;50.058;18.130;2023-08-12T03:55:52;99835.88;;;14.55;100.00
47815;BME280;33579;50.058;18.130;2023-08-12T03:56:53;99837.13;;;14.60;100.00
47815;BME280;33579;50.058;18.130;2023-08-12T03:57:56;99838.53;;;14.65;100.00
47815;BME280;33579;50.058;18.130;2023-08-12T03:58:57;99831.56;;;14.64;100.00
47815;BME280;33579;50.058;18.130;2023-08-12T03:59:59;99827.22;;;14.62;100.00
47815;BME280;33579;50.058;18.130;2023-08-12T04:01:01;99835.56;;;14.68;100.00
47815;BME280;33579;50.058;18.130;2023-08-12T04:02:02;99835.44;;;14.69;100.00
47815;BME280;33579;50.058;18.130;2023-08-12T04:03:04;99835.28;;;14.71;100.00
47815;BME280;33579;50.058;18.130;2023-08-12T04:04:06;99830.97;;;14.70;100.00
47815;BME280;33579;50.058;18.130;2023-08-12T04:05:08;99832.63;;;14.71;100.00
47815;BME280;33579;50.058;18.130;2023-08-12T04:06:09;99830.56;;;14.74;100.00
47815;BME280;33579;50.058;18.130;2023-08-12T04:07:11;99833.59;;;14.80;100.00
47815;BME280;33579;50.058;18.130;2023-08-12T04:08:13;99832.47;;;14.82;100.00
47815;BME280;33579;50.058;18.130;2023-08-12T04:09:15;99832.88;;;14.87;100.00
47815;BME280;33579;50.058;18.130;2023-08-12T04:10:17;99833.56;;;14.89;100.00
47815;BME280;33579;50.058;18.130;2023-08-12T04:11:19;99831.44;;;14.93;100.00
47815;BME280;33579;50.058;18.130;2023-08-12T04:12:20;99828.97;;;14.92;100.00
47815;BME280;33579;50.058;18.130;2023-08-12T04:13:22;99832.97;;;14.96;100.00
47815;BME280;33579;50.058;18.130;2023-08-12T04:14:24;99827.53;;;14.97;100.00
47815;BME280;33579;50.058;18.130;2023-08-12T04:15:25;99830.31;;;14.96;100.00
47815;BME280;33579;50.058;18.130;2023-08-12T04:16:27;99837.47;;;14.95;100.00
47815;BME280;33579;50.058;18.130;2023-08-12T04:17:29;99833.53;;;14.99;100.00
47815;BME280;33579;50.058;18.130;2023-08-12T04:18:30;99828.16;;;15.09;100.00
47815;BME280;33579;50.058;18.130;2023-08-12T04:19:33;99822.94;;;14.99;100.00
47815;BME280;33579;50.058;18.130;2023-08-12T04:20:37;99826.16;;;14.93;100.00
47815;BME280;33579;50.058;18.130;2023-08-12T04:21:39;99823.38;;;14.95;100.00
47815;BME280;33579;50.058;18.130;2023-08-12T04:22:41;99829.22;;;14.98;100.00
47815;BME280;33579;50.058;18.130;2023-08-12T04:23:42;99820.97;;;15.01;100.00
47815;BME280;33579;50.058;18.130;2023-08-12T04:24:45;99819.84;;;15.04;100.00
47815;BME280;33579;50.058;18.130;2023-08-12T04:25:48;99822.06;;;15.09;100.00
47815;BME280;33579;50.058;18.130;2023-08-12T04:26:51;99822.06;;;15.09;100.00
47815;BME280;33579;50.058;18.130;2023-08-12T04:27:53;99820.22;;;15.09;100.00
47815;BME280;33579;50.058;18.130;2023-08-12T04:28:55;99825.22;;;15.12;100.00
47815;BME280;33579;50.058;18.130;2023-08-12T04:29:58;99825.06;;;15.14;100.00
47815;BME280;33579;50.058;18.130;2023-08-12T04:31:00;99818.66;;;15.16;100.00
47815;BME280;33579;50.058;18.130;2023-08-12T04:32:03;99819.19;;;15.20;100.00
47815;BME280;33579;50.058;18.130;2023-08-12T04:33:05;99817.06;;;15.24;100.00
47815;BME280;33579;50.058;18.130;2023-08-12T04:34:07;99823.22;;;15.24;100.00
47815;BME280;33579;50.058;18.130;2023-08-12T04:35:09;99822.09;;;15.27;100.00
47815;BME280;33579;50.058;18.130;2023-08-12T04:36:11;99820.25;;;15.27;100.00
47815;BME280;33579;50.058;18.130;2023-08-12T04:37:13;99822.78;;;15.29;100.00
47815;BME280;33579;50.058;18.130;2023-08-12T04:38:17;99824.13;;;15.33;100.00
47815;BME280;33579;50.058;18.130;2023-08-12T04:39:19;99824.97;;;15.34;100.00
47815;BME280;33579;50.058;18.130;2023-08-12T04:40:21;99820.91;;;15.39;100.00
47815;BME280;33579;50.058;18.130;2023-08-12T04:41:23;99821.66;;;15.50;100.00
47815;BME280;33579;50.058;18.130;2023-08-12T04:42:26;99830.44;;;15.50;100.00
47815;BME280;33579;50.058;18.130;2023-08-12T04:43:28;99831.81;;;15.54;100.00
47815;BME280;33579;50.058;18.130;2023-08-12T04:44:29;99827.19;;;15.56;100.00
47815;BME280;33579;50.058;18.130;2023-08-12T04:45:31;99839.53;;;15.66;100.00
47815;BME280;33579;50.058;18.130;2023-08-12T04:46:33;99831.31;;;15.69;100.00
47815;BME280;33579;50.058;18.130;2023-08-12T04:47:35;99836.97;;;15.74;100.00
47815;BME280;33579;50.058;18.130;2023-08-12T04:48:36;99832.75;;;15.81;100.00
47815;BME280;33579;50.058;18.130;2023-08-12T04:49:38;99825.00;;;15.88;100.00
47815;BME280;33579;50.058;18.130;2023-08-12T04:50:42;99823.88;;;15.91;100.00
47815;BME280;33579;50.058;18.130;2023-08-12T04:51:44;99824.41;;;15.94;100.00
47815;BME280;33579;50.058;18.130;2023-08-12T04:52:46;99826.28;;;16.02;100.00
47815;BME280;33579;50.058;18.130;2023-08-12T04:53:47;99824.31;;;16.04;100.00
47815;BME280;33579;50.058;18.130;2023-08-12T04:54:53;99828.47;;;16.07;100.00
47815;BME280;33579;50.058;18.130;2023-08-12T04:55:56;99825.50;;;16.10;100.00
47815;BME280;33579;50.058;18.130;2023-08-12T04:56:58;99835.00;;;16.12;100.00
47815;BME280;33579;50.058;18.130;2023-08-12T04:58:00;99829.38;;;16.15;100.00
47815;BME280;33579;50.058;18.130;2023-08-12T04:59:02;99823.78;;;16.19;100.00
47815;BME280;33579;50.058;18.130;2023-08-12T05:00:05;99827.78;;;16.23;100.00
47815;BME280;33579;50.058;18.130;2023-08-12T05:01:07;99825.66;;;16.26;100.00
47815;BME280;33579;50.058;18.130;2023-08-12T05:02:10;99828.13;;;16.28;100.00
47815;BME280;33579;50.058;18.130;2023-08-12T05:03:12;99824.50;;;16.29;100.00
47815;BME280;33579;50.058;18.130;2023-08-12T05:04:13;99825.34;;;16.29;100.00
47815;BME280;33579;50.058;18.130;2023-08-12T05:05:15;99826.41;;;16.37;100.00
47815;BME280;33579;50.058;18.130;2023-08-12T05:06:17;99818.44;;;16.37;100.00
47815;BME280;33579;50.058;18.130;2023-08-12T05:07:19;99818.91;;;16.40;100.00
47815;BME280;33579;50.058;18.130;2023-08-12T05:08:21;99832.19;;;16.40;100.00
47815;BME280;33579;50.058;18.130;2023-08-12T05:09:23;99827.72;;;16.41;100.00
47815;BME280;33579;50.058;18.130;2023-08-12T05:10:24;99833.19;;;16.39;100.00
47815;BME280;33579;50.058;18.130;2023-08-12T05:11:26;99832.19;;;16.40;100.00
47815;BME280;33579;50.058;18.130;2023-08-12T05:12:28;99827.59;;;16.42;100.00
47815;BME280;33579;50.058;18.130;2023-08-12T05:13:29;99830.06;;;16.44;100.00
47815;BME280;33579;50.058;18.130;2023-08-12T05:14:31;99833.72;;;16.43;100.00
47815;BME280;33579;50.058;18.130;2023-08-12T05:15:33;99837.91;;;16.46;100.00
47815;BME280;33579;50.058;18.130;2023-08-12T05:16:35;99830.28;;;16.51;100.00
47815;BME280;33579;50.058;18.130;2023-08-12T05:17:37;99830.66;;;16.56;100.00
47815;BME280;33579;50.058;18.130;2023-08-12T05:18:39;99831.16;;;16.60;100.00
47815;BME280;33579;50.058;18.130;2023-08-12T05:19:41;99822.88;;;16.63;100.00
47815;BME280;33579;50.058;18.130;2023-08-12T05:20:42;99822.88;;;16.63;100.00
47815;BME280;33579;50.058;18.130;2023-08-12T05:21:47;99824.22;;;16.67;100.00
47815;BME280;33579;50.058;18.130;2023-08-12T05:22:49;99821.25;;;16.70;100.00
47815;BME280;33579;50.058;18.130;2023-08-12T05:23:50;99832.25;;;16.75;100.00
47815;BME280;33579;50.058;18.130;2023-08-12T05:24:52;99822.50;;;16.84;100.00
47815;BME280;33579;50.058;18.130;2023-08-12T05:25:54;99826.00;;;16.93;100.00